Terminal Aerodrome Forecast
Issued by NWS

Home | Current Version | Previous Version | Text Only | Print | Product List | Glossary On
Versions: 1 2 3 4 5 6 7 8 9 10 11 12 13
000
FTUS45 KRIW 070500
TAFRKS
TAF
KRKS 070531Z 0706/0806 07012KT 6SM -RA BR SCT008 OVC015
      TEMPO 0706/0709 4SM RA BR BKN008
     FM070900 07010KT P6SM -RA SCT015 OVC026
     FM071600 08014KT P6SM SCT025 BKN050
     FM072100 08014KT P6SM VCTS SCT030 BKN050CB
     FM080200 08015KT P6SM SCT050 BKN080=

USA.gov is the U.S. government's official web portal to all federal, state and local government web resources and services.